sensor_id;sensor_type;location;lat;lon;timestamp;temperature;humidity
20881;DHT22;10600;53.096;8.802;2023-01-30T00:00:00;4.60;99.90
20881;DHT22;10600;53.096;8.802;2023-01-30T00:01:03;4.60;99.90
20881;DHT22;10600;53.096;8.802;2023-01-30T00:02:04;4.60;99.90
20881;DHT22;10600;53.096;8.802;2023-01-30T00:03:05;4.70;99.90
20881;DHT22;10600;53.096;8.802;2023-01-30T00:04:05;4.70;99.90
20881;DHT22;10600;53.096;8.802;2023-01-30T00:05:06;4.70;99.90
20881;DHT22;10600;53.096;8.802;2023-01-30T00:06:07;4.70;99.90
20881;DHT22;10600;53.096;8.802;2023-01-30T00:07:08;4.70;99.90
20881;DHT22;10600;53.096;8.802;2023-01-30T00:08:08;4.60;99.90
20881;DHT22;10600;53.096;8.802;2023-01-30T00:09:12;4.70;99.90
20881;DHT22;10600;53.096;8.802;2023-01-30T00:10:13;4.60;99.90
20881;DHT22;10600;53.096;8.802;2023-01-30T00:11:15;4.60;99.90
20881;DHT22;10600;53.096;8.802;2023-01-30T00:12:16;4.60;99.90
20881;DHT22;10600;53.096;8.802;2023-01-30T00:13:17;4.60;99.90
20881;DHT22;10600;53.096;8.802;2023-01-30T00:14:17;4.60;99.90
20881;DHT22;10600;53.096;8.802;2023-01-30T00:15:18;4.60;99.90
20881;DHT22;10600;53.096;8.802;2023-01-30T00:16:18;4.60;99.90
20881;DHT22;10600;53.096;8.802;2023-01-30T00:17:19;4.60;99.90
20881;DHT22;10600;53.096;8.802;2023-01-30T00:18:19;4.60;99.90
20881;DHT22;10600;53.096;8.802;2023-01-30T00:19:20;4.60;99.90
20881;DHT22;10600;53.096;8.802;2023-01-30T00:20:21;4.60;99.90
20881;DHT22;10600;53.096;8.802;2023-01-30T00:21:21;4.60;99.90
20881;DHT22;10600;53.096;8.802;2023-01-30T00:22:22;4.60;99.90
20881;DHT22;10600;53.096;8.802;2023-01-30T00:23:24;4.60;99.90
20881;DHT22;10600;53.096;8.802;2023-01-30T00:24:25;4.60;99.90
20881;DHT22;10600;53.096;8.802;2023-01-30T00:25:26;4.60;99.90
20881;DHT22;10600;53.096;8.802;2023-01-30T00:26:26;4.60;99.90
20881;DHT22;10600;53.096;8.802;2023-01-30T00:27:27;4.60;99.90
20881;DHT22;10600;53.096;8.802;2023-01-30T00:28:27;4.60;99.90
20881;DHT22;10600;53.096;8.802;2023-01-30T00:29:28;4.60;99.90
20881;DHT22;10600;53.096;8.802;2023-01-30T00:30:29;4.60;99.90
20881;DHT22;10600;53.096;8.802;2023-01-30T00:31:30;4.60;99.90
20881;DHT22;10600;53.096;8.802;2023-01-30T00:32:31;4.60;99.90
20881;DHT22;10600;53.096;8.802;2023-01-30T00:33:31;4.60;99.90
20881;DHT22;10600;53.096;8.802;2023-01-30T00:34:32;4.60;99.90
20881;DHT22;10600;53.096;8.802;2023-01-30T00:35:33;4.60;99.90
20881;DHT22;10600;53.096;8.802;2023-01-30T00:36:33;4.60;99.90
20881;DHT22;10600;53.096;8.802;2023-01-30T00:37:34;4.60;99.90
20881;DHT22;10600;53.096;8.802;2023-01-30T00:38:35;4.60;99.90
20881;DHT22;10600;53.096;8.802;2023-01-30T00:39:35;4.60;99.90
20881;DHT22;10600;53.096;8.802;2023-01-30T00:40:36;4.60;99.90
20881;DHT22;10600;53.096;8.802;2023-01-30T00:41:37;4.60;99.90
20881;DHT22;10600;53.096;8.802;2023-01-30T00:42:56;4.60;99.90
20881;DHT22;10600;53.096;8.802;2023-01-30T00:44:15;4.60;99.90
20881;DHT22;10600;53.096;8.802;2023-01-30T00:45:35;4.60;99.90
20881;DHT22;10600;53.096;8.802;2023-01-30T00:46:55;4.60;99.90
20881;DHT22;10600;53.096;8.802;2023-01-30T00:48:05;4.60;99.90
20881;DHT22;10600;53.096;8.802;2023-01-30T00:49:06;4.60;99.90
20881;DHT22;10600;53.096;8.802;2023-01-30T00:50:07;4.70;99.90
20881;DHT22;10600;53.096;8.802;2023-01-30T00:51:08;4.70;99.90
20881;DHT22;10600;53.096;8.802;2023-01-30T00:52:09;4.70;99.90
20881;DHT22;10600;53.096;8.802;2023-01-30T00:53:14;4.70;99.90
20881;DHT22;10600;53.096;8.802;2023-01-30T00:54:15;4.70;99.90
20881;DHT22;10600;53.096;8.802;2023-01-30T00:55:15;4.70;99.90
20881;DHT22;10600;53.096;8.802;2023-01-30T00:56:16;4.70;99.90
20881;DHT22;10600;53.096;8.802;2023-01-30T00:57:17;4.70;99.90
20881;DHT22;10600;53.096;8.802;2023-01-30T00:58:18;4.70;99.90
20881;DHT22;10600;53.096;8.802;2023-01-30T00:59:19;4.70;99.90
20881;DHT22;10600;53.096;8.802;2023-01-30T01:00:20;4.70;99.90
20881;DHT22;10600;53.096;8.802;2023-01-30T01:01:22;4.80;99.90
20881;DHT22;10600;53.096;8.802;2023-01-30T01:02:23;4.70;99.90
20881;DHT22;10600;53.096;8.802;2023-01-30T01:03:24;4.80;99.90
20881;DHT22;10600;53.096;8.802;2023-01-30T01:04:25;4.80;99.90
20881;DHT22;10600;53.096;8.802;2023-01-30T01:05:25;4.80;99.90
20881;DHT22;10600;53.096;8.802;2023-01-30T01:06:26;4.80;99.90
20881;DHT22;10600;53.096;8.802;2023-01-30T01:07:27;4.80;99.90
20881;DHT22;10600;53.096;8.802;2023-01-30T01:08:27;4.80;99.90
20881;DHT22;10600;53.096;8.802;2023-01-30T01:09:28;4.80;99.90
20881;DHT22;10600;53.096;8.802;2023-01-30T01:10:29;4.80;99.90
20881;DHT22;10600;53.096;8.802;2023-01-30T01:11:29;4.80;99.90
20881;DHT22;10600;53.096;8.802;2023-01-30T01:12:30;4.90;99.90
20881;DHT22;10600;53.096;8.802;2023-01-30T01:13:30;4.90;99.90
20881;DHT22;10600;53.096;8.802;2023-01-30T01:14:32;4.90;99.90
20881;DHT22;10600;53.096;8.802;2023-01-30T01:15:33;4.90;99.90
20881;DHT22;10600;53.096;8.802;2023-01-30T01:16:34;4.90;99.90
20881;DHT22;10600;53.096;8.802;2023-01-30T01:17:35;5.00;99.90
20881;DHT22;10600;53.096;8.802;2023-01-30T01:18:35;5.00;99.90
20881;DHT22;10600;53.096;8.802;2023-01-30T01:19:36;5.00;99.90
20881;DHT22;10600;53.096;8.802;2023-01-30T01:20:37;5.00;99.90
20881;DHT22;10600;53.096;8.802;2023-01-30T01:21:37;5.00;99.90
20881;DHT22;10600;53.096;8.802;2023-01-30T01:22:38;5.00;99.90
20881;DHT22;10600;53.096;8.802;2023-01-30T01:23:39;5.10;99.90
20881;DHT22;10600;53.096;8.802;2023-01-30T01:24:39;5.10;99.90
20881;DHT22;10600;53.096;8.802;2023-01-30T01:25:40;5.10;99.90
20881;DHT22;10600;53.096;8.802;2023-01-30T01:26:41;5.10;99.90
20881;DHT22;10600;53.096;8.802;2023-01-30T01:27:42;5.10;99.90
20881;DHT22;10600;53.096;8.802;2023-01-30T01:28:42;5.10;99.90
20881;DHT22;10600;53.096;8.802;2023-01-30T01:29:43;5.10;99.90
20881;DHT22;10600;53.096;8.802;2023-01-30T01:30:43;5.20;99.90
20881;DHT22;10600;53.096;8.802;2023-01-30T01:31:44;5.20;99.90
20881;DHT22;10600;53.096;8.802;2023-01-30T01:32:45;5.20;99.90
20881;DHT22;10600;53.096;8.802;2023-01-30T01:33:46;5.20;99.90
20881;DHT22;10600;53.096;8.802;2023-01-30T01:34:47;5.30;99.90
20881;DHT22;10600;53.096;8.802;2023-01-30T01:35:47;5.30;99.90
20881;DHT22;10600;53.096;8.802;2023-01-30T01:36:48;5.30;99.90
20881;DHT22;10600;53.096;8.802;2023-01-30T01:37:52;5.30;99.90
20881;DHT22;10600;53.096;8.802;2023-01-30T01:38:53;5.40;99.90
20881;DHT22;10600;53.096;8.802;2023-01-30T01:39:54;5.40;99.90
20881;DHT22;10600;53.096;8.802;2023-01-30T01:41:16;5.40;99.90
20881;DHT22;10600;53.096;8.802;2023-01-30T01:42:17;5.40;99.90
20881;DHT22;10600;53.096;8.802;2023-01-30T01:43:20;5.40;99.90
20881;DHT22;10600;53.096;8.802;2023-01-30T01:44:23;5.40;99.90
20881;DHT22;10600;53.096;8.802;2023-01-30T01:45:24;5.40;99.90
20881;DHT22;10600;53.096;8.802;2023-01-30T01:46:37;5.50;99.90
20881;DHT22;10600;53.096;8.802;2023-01-30T01:47:46;5.50;99.90
20881;DHT22;10600;53.096;8.802;2023-01-30T01:48:51;5.50;99.90
20881;DHT22;10600;53.096;8.802;2023-01-30T01:49:54;5.50;99.90
20881;DHT22;10600;53.096;8.802;2023-01-30T01:51:00;5.50;99.90
20881;DHT22;10600;53.096;8.802;2023-01-30T01:53:05;5.60;99.90
20881;DHT22;10600;53.096;8.802;2023-01-30T01:54:14;5.60;99.90
20881;DHT22;10600;53.096;8.802;2023-01-30T01:55:15;5.60;99.90
20881;DHT22;10600;53.096;8.802;2023-01-30T01:56:17;5.60;99.90
20881;DHT22;10600;53.096;8.802;2023-01-30T01:57:53;5.70;99.90
20881;DHT22;10600;53.096;8.802;2023-01-30T01:58:57;5.70;99.90
20881;DHT22;10600;53.096;8.802;2023-01-30T02:00:05;5.70;99.90
20881;DHT22;10600;53.096;8.802;2023-01-30T02:01:07;5.70;99.90
20881;DHT22;10600;53.096;8.802;2023-01-30T02:02:09;5.70;99.90
20881;DHT22;10600;53.096;8.802;2023-01-30T02:03:16;5.70;99.90
20881;DHT22;10600;53.096;8.802;2023-01-30T02:04:17;5.70;99.90
20881;DHT22;10600;53.096;8.802;2023-01-30T02:05:41;5.70;99.90
20881;DHT22;10600;53.096;8.802;2023-01-30T02:06:43;5.70;99.90
20881;DHT22;10600;53.096;8.802;2023-01-30T02:09:12;5.70;99.90
20881;DHT22;10600;53.096;8.802;2023-01-30T02:10:24;5.70;99.90
20881;DHT22;10600;53.096;8.802;2023-01-30T02:12:30;5.70;99.90
20881;DHT22;10600;53.096;8.802;2023-01-30T02:13:32;5.60;99.90
20881;DHT22;10600;53.096;8.802;2023-01-30T02:14:33;5.60;99.90
20881;DHT22;10600;53.096;8.802;2023-01-30T02:15:34;5.70;99.90
20881;DHT22;10600;53.096;8.802;2023-01-30T02:16:36;5.60;99.90
20881;DHT22;10600;53.096;8.802;2023-01-30T02:17:36;5.60;99.90
20881;DHT22;10600;53.096;8.802;2023-01-30T02:18:39;5.60;99.90
20881;DHT22;10600;53.096;8.802;2023-01-30T02:19:54;5.60;99.90
20881;DHT22;10600;53.096;8.802;2023-01-30T02:21:18;5.60;99.90
20881;DHT22;10600;53.096;8.802;2023-01-30T02:29:54;5.60;99.90
20881;DHT22;10600;53.096;8.802;2023-01-30T02:31:06;5.60;99.90
20881;DHT22;10600;53.096;8.802;2023-01-30T02:33:53;5.60;99.90
20881;DHT22;10600;53.096;8.802;2023-01-30T02:39:07;5.60;99.90
20881;DHT22;10600;53.096;8.802;2023-01-30T02:43:12;5.60;99.90
20881;DHT22;10600;53.096;8.802;2023-01-30T02:47:59;5.60;99.90
20881;DHT22;10600;53.096;8.802;2023-01-30T02:49:08;5.60;99.90
20881;DHT22;10600;53.096;8.802;2023-01-30T02:50:26;5.60;99.90
20881;DHT22;10600;53.096;8.802;2023-01-30T02:51:30;5.60;99.90
20881;DHT22;10600;53.096;8.802;2023-01-30T02:52:33;5.60;99.90
20881;DHT22;10600;53.096;8.802;2023-01-30T02:53:35;5.60;99.90
20881;DHT22;10600;53.096;8.802;2023-01-30T02:54:36;5.60;99.90
20881;DHT22;10600;53.096;8.802;2023-01-30T02:55:39;5.60;99.90
20881;DHT22;10600;53.096;8.802;2023-01-30T02:56:49;5.60;99.90
20881;DHT22;10600;53.096;8.802;2023-01-30T02:57:51;5.60;99.90
20881;DHT22;10600;53.096;8.802;2023-01-30T02:58:58;5.60;99.90
20881;DHT22;10600;53.096;8.802;2023-01-30T03:00:04;5.60;99.90
20881;DHT22;10600;53.096;8.802;2023-01-30T03:02:46;5.70;99.90
20881;DHT22;10600;53.096;8.802;2023-01-30T03:08:33;5.60;99.90
20881;DHT22;10600;53.096;8.802;2023-01-30T03:11:06;5.60;99.90
20881;DHT22;10600;53.096;8.802;2023-01-30T03:13:51;5.60;99.90
20881;DHT22;10600;53.096;8.802;2023-01-30T03:15:02;5.60;99.90
20881;DHT22;10600;53.096;8.802;2023-01-30T03:17:11;5.70;99.90
20881;DHT22;10600;53.096;8.802;2023-01-30T03:18:12;5.60;99.90
20881;DHT22;10600;53.096;8.802;2023-01-30T03:19:13;5.70;99.90
20881;DHT22;10600;53.096;8.802;2023-01-30T03:20:15;5.70;99.90
20881;DHT22;10600;53.096;8.802;2023-01-30T03:21:18;5.70;99.90
20881;DHT22;10600;53.096;8.802;2023-01-30T03:22:20;5.70;99.90
20881;DHT22;10600;53.096;8.802;2023-01-30T03:23:20;5.70;99.90
20881;DHT22;10600;53.096;8.802;2023-01-30T03:24:21;5.70;99.90
20881;DHT22;10600;53.096;8.802;2023-01-30T03:25:24;5.70;99.90
20881;DHT22;10600;53.096;8.802;2023-01-30T03:26:30;5.70;99.90
20881;DHT22;10600;53.096;8.802;2023-01-30T03:27:33;5.70;99.90
20881;DHT22;10600;53.096;8.802;2023-01-30T03:28:34;5.70;99.90
20881;DHT22;10600;53.096;8.802;2023-01-30T03:29:35;5.70;99.90
20881;DHT22;10600;53.096;8.802;2023-01-30T03:30:36;5.70;99.90
20881;DHT22;10600;53.096;8.802;2023-01-30T03:31:36;5.70;99.90
20881;DHT22;10600;53.096;8.802;2023-01-30T03:32:37;5.80;99.90
20881;DHT22;10600;53.096;8.802;2023-01-30T03:33:37;5.70;99.90
20881;DHT22;10600;53.096;8.802;2023-01-30T03:34:38;5.70;99.90
20881;DHT22;10600;53.096;8.802;2023-01-30T03:35:39;5.70;99.90
20881;DHT22;10600;53.096;8.802;2023-01-30T03:36:40;5.70;99.90
20881;DHT22;10600;53.096;8.802;2023-01-30T03:37:40;5.80;99.90
20881;DHT22;10600;53.096;8.802;2023-01-30T03:38:41;5.80;99.90
20881;DHT22;10600;53.096;8.802;2023-01-30T03:39:42;5.80;99.90
20881;DHT22;10600;53.096;8.802;2023-01-30T03:40:42;5.70;99.90
20881;DHT22;10600;53.096;8.802;2023-01-30T03:41:43;5.80;99.90
20881;DHT22;10600;53.096;8.802;2023-01-30T03:42:44;5.80;99.90
20881;DHT22;10600;53.096;8.802;2023-01-30T03:43:45;5.80;99.90
20881;DHT22;10600;53.096;8.802;2023-01-30T03:44:45;5.80;99.90
20881;DHT22;10600;53.096;8.802;2023-01-30T03:45:46;5.80;99.90
20881;DHT22;10600;53.096;8.802;2023-01-30T03:46:46;5.80;99.90
20881;DHT22;10600;53.096;8.802;2023-01-30T03:47:47;5.80;99.90
20881;DHT22;10600;53.096;8.802;2023-01-30T03:48:48;5.80;99.90
20881;DHT22;10600;53.096;8.802;2023-01-30T03:49:48;5.80;99.90
20881;DHT22;10600;53.096;8.802;2023-01-30T03:50:49;5.90;99.90
20881;DHT22;10600;53.096;8.802;2023-01-30T03:51:49;5.80;99.90
20881;DHT22;10600;53.096;8.802;2023-01-30T03:52:50;5.90;99.90
20881;DHT22;10600;53.096;8.802;2023-01-30T03:53:51;5.90;99.90
20881;DHT22;10600;53.096;8.802;2023-01-30T03:54:51;5.90;99.90
20881;DHT22;10600;53.096;8.802;2023-01-30T03:55:52;5.90;99.90
20881;DHT22;10600;53.096;8.802;2023-01-30T03:56:53;5.90;99.90
20881;DHT22;10600;53.096;8.802;2023-01-30T03:57:55;5.90;99.90
20881;DHT22;10600;53.096;8.802;2023-01-30T03:58:56;5.90;99.90
20881;DHT22;10600;53.096;8.802;2023-01-30T03:59:56;5.90;99.90
20881;DHT22;10600;53.096;8.802;2023-01-30T04:00:57;5.90;99.90
20881;DHT22;10600;53.096;8.802;2023-01-30T04:01:57;6.00;99.90
20881;DHT22;10600;53.096;8.802;2023-01-30T04:02:58;6.00;99.90
20881;DHT22;10600;53.096;8.802;2023-01-30T04:03:59;6.00;99.90
20881;DHT22;10600;53.096;8.802;2023-01-30T04:04:59;6.00;99.90
20881;DHT22;10600;53.096;8.802;2023-01-30T04:06:00;6.00;99.90
20881;DHT22;10600;53.096;8.802;2023-01-30T04:07:01;6.00;99.90
20881;DHT22;10600;53.096;8.802;2023-01-30T04:08:01;6.00;99.90
20881;DHT22;10600;53.096;8.802;2023-01-30T04:09:02;6.00;99.90
20881;DHT22;10600;53.096;8.802;2023-01-30T04:10:03;6.10;99.90
20881;DHT22;10600;53.096;8.802;2023-01-30T04:11:04;6.10;99.90
20881;DHT22;10600;53.096;8.802;2023-01-30T04:12:05;6.10;99.90
20881;DHT22;10600;53.096;8.802;2023-01-30T04:13:05;6.10;99.90
20881;DHT22;10600;53.096;8.802;2023-01-30T04:14:06;6.10;99.90
20881;DHT22;10600;53.096;8.802;2023-01-30T04:15:08;6.10;99.90
20881;DHT22;10600;53.096;8.802;2023-01-30T04:16:17;6.20;99.90
20881;DHT22;10600;53.096;8.802;2023-01-30T04:17:17;6.20;99.90
20881;DHT22;10600;53.096;8.802;2023-01-30T04:18:18;6.20;99.90
20881;DHT22;10600;53.096;8.802;2023-01-30T04:19:19;6.20;99.90
20881;DHT22;10600;53.096;8.802;2023-01-30T04:20:19;6.20;99.90
20881;DHT22;10600;53.096;8.802;2023-01-30T04:21:20;6.20;99.90
20881;DHT22;10600;53.096;8.802;2023-01-30T04:22:21;6.20;99.90
20881;DHT22;10600;53.096;8.802;2023-01-30T04:23:22;6.20;99.90
20881;DHT22;10600;53.096;8.802;2023-01-30T04:24:22;6.30;99.90
20881;DHT22;10600;53.096;8.802;2023-01-30T04:25:23;6.30;99.90
20881;DHT22;10600;53.096;8.802;2023-01-30T04:26:24;6.30;99.90
20881;DHT22;10600;53.096;8.802;2023-01-30T04:27:25;6.20;99.90
20881;DHT22;10600;53.096;8.802;2023-01-30T04:28:25;6.30;99.90
20881;DHT22;10600;53.096;8.802;2023-01-30T04:29:26;6.20;99.90
20881;DHT22;10600;53.096;8.802;2023-01-30T04:30:27;6.20;99.90
20881;DHT22;10600;53.096;8.802;2023-01-30T04:31:27;6.20;99.90
20881;DHT22;10600;53.096;8.802;2023-01-30T04:32:28;6.20;99.90
20881;DHT22;10600;53.096;8.802;2023-01-30T04:33:28;6.20;99.90
20881;DHT22;10600;53.096;8.802;2023-01-30T04:34:29;6.20;99.90
20881;DHT22;10600;53.096;8.802;2023-01-30T04:35:30;6.20;99.90
20881;DHT22;10600;53.096;8.802;2023-01-30T04:36:31;6.20;99.90
20881;DHT22;10600;53.096;8.802;2023-01-30T04:37:32;6.20;99.90
20881;DHT22;10600;53.096;8.802;2023-01-30T04:38:33;6.10;99.90
20881;DHT22;10600;53.096;8.802;2023-01-30T04:39:34;6.10;99.90
20881;DHT22;10600;53.096;8.802;2023-01-30T04:40:34;6.00;99.90
20881;DHT22;10600;53.096;8.802;2023-01-30T04:41:35;6.00;99.90
20881;DHT22;10600;53.096;8.802;2023-01-30T04:42:36;6.00;99.90
20881;DHT22;10600;53.096;8.802;2023-01-30T04:43:36;6.00;99.90
20881;DHT22;10600;53.096;8.802;2023-01-30T04:44:37;6.00;99.90
20881;DHT22;10600;53.096;8.802;2023-01-30T04:45:42;6.00;99.90
20881;DHT22;10600;53.096;8.802;2023-01-30T04:46:43;6.00;99.90
20881;DHT22;10600;53.096;8.802;2023-01-30T04:47:44;5.90;99.90
20881;DHT22;10600;53.096;8.802;2023-01-30T04:48:45;5.90;99.90
20881;DHT22;10600;53.096;8.802;2023-01-30T04:49:45;5.90;99.90
20881;DHT22;10600;53.096;8.802;2023-01-30T04:50:48;5.90;99.90
20881;DHT22;10600;53.096;8.802;2023-01-30T04:51:49;5.90;99.90
20881;DHT22;10600;53.096;8.802;2023-01-30T04:52:50;5.90;99.90
20881;DHT22;10600;53.096;8.802;2023-01-30T04:53:50;5.90;99.90
20881;DHT22;10600;53.096;8.802;2023-01-30T04:54:51;5.90;99.90
20881;DHT22;10600;53.096;8.802;2023-01-30T04:55:51;5.90;99.90
20881;DHT22;10600;53.096;8.802;2023-01-30T04:56:52;5.90;99.90
20881;DHT22;10600;53.096;8.802;2023-01-30T04:57:53;5.90;99.90
20881;DHT22;10600;53.096;8.802;2023-01-30T04:58:53;5.90;99.90
20881;DHT22;10600;53.096;8.802;2023-01-30T04:59:54;5.90;99.90
20881;DHT22;10600;53.096;8.802;2023-01-30T05:00:55;5.90;99.90
20881;DHT22;10600;53.096;8.802;2023-01-30T05:01:55;5.90;99.90
20881;DHT22;10600;53.096;8.802;2023-01-30T05:02:56;5.90;99.90
20881;DHT22;10600;53.096;8.802;2023-01-30T05:03:57;5.90;99.90
20881;DHT22;10600;53.096;8.802;2023-01-30T05:04:57;5.90;99.90
20881;DHT22;10600;53.096;8.802;2023-01-30T05:05:58;5.90;99.90
20881;DHT22;10600;53.096;8.802;2023-01-30T05:06:59;5.80;99.90
20881;DHT22;10600;53.096;8.802;2023-01-30T05:07:59;5.90;99.90
20881;DHT22;10600;53.096;8.802;2023-01-30T05:09:01;5.90;99.90
20881;DHT22;10600;53.096;8.802;2023-01-30T05:10:01;5.90;99.90
20881;DHT22;10600;53.096;8.802;2023-01-30T05:11:02;5.90;99.90
20881;DHT22;10600;53.096;8.802;2023-01-30T05:12:03;5.80;99.90
20881;DHT22;10600;53.096;8.802;2023-01-30T05:13:04;5.80;99.90
20881;DHT22;10600;53.096;8.802;2023-01-30T05:14:05;5.90;99.90
20881;DHT22;10600;53.096;8.802;2023-01-30T05:15:06;5.90;99.90
20881;DHT22;10600;53.096;8.802;2023-01-30T05:16:08;5.90;99.90
20881;DHT22;10600;53.096;8.802;2023-01-30T05:17:09;5.90;99.90
20881;DHT22;10600;53.096;8.802;2023-01-30T05:18:09;5.90;99.90
20881;DHT22;10600;53.096;8.802;2023-01-30T05:19:11;5.90;99.90
20881;DHT22;10600;53.096;8.802;2023-01-30T05:20:13;5.90;99.90
20881;DHT22;10600;53.096;8.802;2023-01-30T05:21:20;5.90;99.90
20881;DHT22;10600;53.096;8.802;2023-01-30T05:22:21;5.90;99.90
20881;DHT22;10600;53.096;8.802;2023-01-30T05:23:21;5.90;99.90
20881;DHT22;10600;53.096;8.802;2023-01-30T05:24:22;5.90;99.90
20881;DHT22;10600;53.096;8.802;2023-01-30T05:25:23;5.90;99.90
20881;DHT22;10600;53.096;8.802;2023-01-30T05:26:23;6.00;99.90
20881;DHT22;10600;53.096;8.802;2023-01-30T05:27:24;6.00;99.90
20881;DHT22;10600;53.096;8.802;2023-01-30T05:28:25;5.90;99.90
20881;DHT22;10600;53.096;8.802;2023-01-30T05:29:26;5.90;99.90
20881;DHT22;10600;53.096;8.802;2023-01-30T05:30:26;6.00;99.90
20881;DHT22;10600;53.096;8.802;2023-01-30T05:31:27;5.90;99.90
20881;DHT22;10600;53.096;8.802;2023-01-30T05:32:27;6.00;99.90
20881;DHT22;10600;53.096;8.802;2023-01-30T05:33:30;6.00;99.90
20881;DHT22;10600;53.096;8.802;2023-01-30T05:34:31;6.00;99.90
20881;DHT22;10600;53.096;8.802;2023-01-30T05:35:31;6.00;99.90
20881;DHT22;10600;53.096;8.802;2023-01-30T05:36:32;6.00;99.90
20881;DHT22;10600;53.096;8.802;2023-01-30T05:37:32;6.00;99.90
20881;DHT22;10600;53.096;8.802;2023-01-30T05:38:33;6.00;99.90
20881;DHT22;10600;53.096;8.802;2023-01-30T05:39:34;6.00;99.90
20881;DHT22;10600;53.096;8.802;2023-01-30T05:40:34;6.00;99.90
20881;DHT22;10600;53.096;8.802;2023-01-30T05:41:35;6.10;99.90
20881;DHT22;10600;53.096;8.802;2023-01-30T05:42:35;6.00;99.90
20881;DHT22;10600;53.096;8.802;2023-01-30T05:43:36;6.10;99.90
20881;DHT22;10600;53.096;8.802;2023-01-30T05:44:37;6.10;99.90
20881;DHT22;10600;53.096;8.802;2023-01-30T05:45:37;6.10;99.90
20881;DHT22;10600;53.096;8.802;2023-01-30T05:46:38;6.10;99.90
20881;DHT22;10600;53.096;8.802;2023-01-30T05:47:39;6.10;99.90
20881;DHT22;10600;53.096;8.802;2023-01-30T05:48:39;6.20;99.90
20881;DHT22;10600;53.096;8.802;2023-01-30T05:49:40;6.20;99.90
20881;DHT22;10600;53.096;8.802;2023-01-30T05:50:41;6.20;99.90
20881;DHT22;10600;53.096;8.802;2023-01-30T05:51:41;6.10;99.90
20881;DHT22;10600;53.096;8.802;2023-01-30T05:52:42;6.10;99.90
20881;DHT22;10600;53.096;8.802;2023-01-30T05:53:43;6.10;99.90
20881;DHT22;10600;53.096;8.802;2023-01-30T05:54:43;6.10;99.90
20881;DHT22;10600;53.096;8.802;2023-01-30T05:55:44;6.10;99.90
20881;DHT22;10600;53.096;8.802;2023-01-30T05:56:48;6.00;99.90
20881;DHT22;10600;53.096;8.802;2023-01-30T05:57:49;6.10;99.90
20881;DHT22;10600;53.096;8.802;2023-01-30T05:58:51;6.00;99.90
20881;DHT22;10600;53.096;8.802;2023-01-30T05:59:52;6.00;99.90
20881;DHT22;10600;53.096;8.802;2023-01-30T06:00:53;6.00;99.90
20881;DHT22;10600;53.096;8.802;2023-01-30T06:01:54;5.90;99.90
20881;DHT22;10600;53.096;8.802;2023-01-30T06:02:55;5.90;99.90
20881;DHT22;10600;53.096;8.802;2023-01-30T06:03:57;5.90;99.90
20881;DHT22;10600;53.096;8.802;2023-01-30T06:04:58;5.90;99.90
20881;DHT22;10600;53.096;8.802;2023-01-30T06:06:00;5.90;99.90
20881;DHT22;10600;53.096;8.802;2023-01-30T06:07:01;5.80;99.90
20881;DHT22;10600;53.096;8.802;2023-01-30T06:08:02;5.80;99.90
20881;DHT22;10600;53.096;8.802;2023-01-30T06:09:03;5.80;99.90
20881;DHT22;10600;53.096;8.802;2023-01-30T06:10:04;5.80;99.90
20881;DHT22;10600;53.096;8.802;2023-01-30T06:11:07;5.80;99.90
20881;DHT22;10600;53.096;8.802;2023-01-30T06:12:08;5.80;99.90
20881;DHT22;10600;53.096;8.802;2023-01-30T06:13:08;5.80;99.90
20881;DHT22;10600;53.096;8.802;2023-01-30T06:14:10;5.80;99.90
20881;DHT22;10600;53.096;8.802;2023-01-30T06:15:11;5.80;99.90
20881;DHT22;10600;53.096;8.802;2023-01-30T06:16:13;5.80;99.90
20881;DHT22;10600;53.096;8.802;2023-01-30T06:17:14;5.80;99.90
20881;DHT22;10600;53.096;8.802;2023-01-30T06:18:15;5.80;99.90
20881;DHT22;10600;53.096;8.802;2023-01-30T06:19:16;5.90;99.90
20881;DHT22;10600;53.096;8.802;2023-01-30T06:20:16;5.90;99.90
20881;DHT22;10600;53.096;8.802;2023-01-30T06:21:17;5.90;99.90
20881;DHT22;10600;53.096;8.802;2023-01-30T06:22:18;6.00;99.90
20881;DHT22;10600;53.096;8.802;2023-01-30T06:23:19;6.00;99.90
20881;DHT22;10600;53.096;8.802;2023-01-30T06:24:20;6.00;99.90
20881;DHT22;10600;53.096;8.802;2023-01-30T06:25:21;6.00;99.90
20881;DHT22;10600;53.096;8.802;2023-01-30T06:26:21;6.00;99.90
20881;DHT22;10600;53.096;8.802;2023-01-30T06:27:22;6.00;99.90
20881;DHT22;10600;53.096;8.802;2023-01-30T06:28:24;6.00;99.90
20881;DHT22;10600;53.096;8.802;2023-01-30T06:29:24;6.00;99.90
20881;DHT22;10600;53.096;8.802;2023-01-30T06:30:25;6.00;99.90
20881;DHT22;10600;53.096;8.802;2023-01-30T06:31:26;6.10;99.90
20881;DHT22;10600;53.096;8.802;2023-01-30T06:32:26;6.10;99.90
20881;DHT22;10600;53.096;8.802;2023-01-30T06:33:27;6.10;99.90
20881;DHT22;10600;53.096;8.802;2023-01-30T06:34:28;6.10;99.90
20881;DHT22;10600;53.096;8.802;2023-01-30T06:35:28;6.10;99.90
20881;DHT22;10600;53.096;8.802;2023-01-30T06:36:29;6.10;99.90
20881;DHT22;10600;53.096;8.802;2023-01-30T06:37:29;6.10;99.90
20881;DHT22;10600;53.096;8.802;2023-01-30T06:38:30;6.10;99.90
20881;DHT22;10600;53.096;8.802;2023-01-30T06:39:31;6.10;99.90
20881;DHT22;10600;53.096;8.802;2023-01-30T06:40:31;6.00;99.90
20881;DHT22;10600;53.096;8.802;2023-01-30T06:41:32;6.00;99.90
20881;DHT22;10600;53.096;8.802;2023-01-30T06:42:33;6.00;99.90
20881;DHT22;10600;53.096;8.802;2023-01-30T06:43:33;6.00;99.90
20881;DHT22;10600;53.096;8.802;2023-01-30T06:44:34;6.00;99.90
20881;DHT22;10600;53.096;8.802;2023-01-30T06:45:34;6.00;99.90
20881;DHT22;10600;53.096;8.802;2023-01-30T06:46:35;6.00;99.90
20881;DHT22;10600;53.096;8.802;2023-01-30T06:47:46;6.00;99.90
20881;DHT22;10600;53.096;8.802;2023-01-30T06:48:47;6.00;99.90
20881;DHT22;10600;53.096;8.802;2023-01-30T06:49:48;6.00;99.90
20881;DHT22;10600;53.096;8.802;2023-01-30T06:50:48;6.00;99.90
20881;DHT22;10600;53.096;8.802;2023-01-30T06:51:49;6.00;99.90
20881;DHT22;10600;53.096;8.802;2023-01-30T06:52:50;6.00;99.90
20881;DHT22;10600;53.096;8.802;2023-01-30T06:53:52;6.00;99.90
20881;DHT22;10600;53.096;8.802;2023-01-30T06:54:53;5.90;99.90
20881;DHT22;10600;53.096;8.802;2023-01-30T06:55:53;6.00;99.90
20881;DHT22;10600;53.096;8.802;2023-01-30T06:56:54;6.00;99.90
20881;DHT22;10600;53.096;8.802;2023-01-30T06:58:12;5.90;99.90
20881;DHT22;10600;53.096;8.802;2023-01-30T06:59:12;5.90;99.90
20881;DHT22;10600;53.096;8.802;2023-01-30T07:00:18;5.90;99.90
20881;DHT22;10600;53.096;8.802;2023-01-30T07:01:19;5.90;99.90
20881;DHT22;10600;53.096;8.802;2023-01-30T07:02:20;5.90;99.90
20881;DHT22;10600;53.096;8.802;2023-01-30T07:03:21;5.90;99.90
20881;DHT22;10600;53.096;8.802;2023-01-30T07:04:21;5.90;99.90
20881;DHT22;10600;53.096;8.802;2023-01-30T07:05:22;5.90;99.90
20881;DHT22;10600;53.096;8.802;2023-01-30T07:06:25;5.90;99.90
20881;DHT22;10600;53.096;8.802;2023-01-30T07:07:26;5.90;99.90
20881;DHT22;10600;53.096;8.802;2023-01-30T07:08:26;5.90;99.90
20881;DHT22;10600;53.096;8.802;2023-01-30T07:09:27;5.90;99.90
20881;DHT22;10600;53.096;8.802;2023-01-30T07:10:28;5.90;99.90
20881;DHT22;10600;53.096;8.802;2023-01-30T07:11:31;5.80;99.90